createdAt,value
2022-07-30T00:00:37.189Z,16.50
2022-07-30T00:03:05.664Z,16.40
2022-07-30T00:05:35.370Z,16.40
2022-07-30T00:08:03.754Z,16.40
2022-07-30T00:10:32.148Z,16.40
2022-07-30T00:13:00.522Z,16.40
2022-07-30T00:15:29.076Z,16.40
2022-07-30T00:17:57.713Z,16.30
2022-07-30T00:20:27.981Z,16.30
2022-07-30T00:22:58.248Z,16.30
2022-07-30T00:25:26.606Z,16.30
2022-07-30T00:27:55.102Z,16.30
2022-07-30T00:30:23.869Z,16.30
2022-07-30T00:32:52.269Z,16.30
2022-07-30T00:35:20.641Z,16.30
2022-07-30T00:37:48.973Z,16.20
2022-07-30T00:40:18.712Z,16.30
2022-07-30T00:42:48.996Z,16.30
2022-07-30T00:45:19.141Z,16.20
2022-07-30T00:47:47.809Z,16.20
2022-07-30T00:50:17.292Z,16.20
2022-07-30T00:52:45.897Z,16.20
2022-07-30T00:55:16.526Z,16.20
2022-07-30T00:57:46.365Z,16.10
2022-07-30T01:00:17.934Z,16.10
2022-07-30T01:02:46.132Z,16.10
2022-07-30T01:05:14.671Z,16.10
2022-07-30T01:07:43.078Z,16.00
2022-07-30T01:10:14.625Z,16.00
2022-07-30T01:12:45.773Z,16.00
2022-07-30T01:15:14.656Z,16.00
2022-07-30T01:17:43.403Z,16.00
2022-07-30T01:20:17.528Z,16.00
2022-07-30T01:23:09.732Z,16.00
2022-07-30T01:26:01.168Z,15.90
2022-07-30T01:28:35.170Z,15.90
2022-07-30T01:31:05.474Z,15.80
2022-07-30T01:33:36.644Z,15.70
2022-07-30T01:36:05.567Z,15.80
2022-07-30T01:38:35.458Z,15.70
2022-07-30T01:41:07.167Z,15.70
2022-07-30T01:43:37.307Z,15.70
2022-07-30T01:46:07.528Z,15.60
2022-07-30T01:48:41.468Z,15.70
2022-07-30T01:51:13.335Z,15.70
2022-07-30T01:53:44.660Z,15.70
2022-07-30T01:56:17.179Z,15.60
2022-07-30T01:58:48.224Z,15.60
2022-07-30T02:01:17.208Z,15.70
2022-07-30T02:03:45.764Z,15.60
2022-07-30T02:06:20.849Z,15.60
2022-07-30T02:08:55.875Z,15.60
2022-07-30T02:11:39.502Z,15.50
2022-07-30T02:14:14.406Z,15.50
2022-07-30T02:16:44.025Z,15.50
2022-07-30T02:19:16.465Z,15.50
2022-07-30T02:21:53.939Z,15.40
2022-07-30T02:24:30.882Z,15.40
2022-07-30T02:27:07.376Z,15.40
2022-07-30T02:29:38.294Z,15.40
2022-07-30T02:32:11.066Z,15.40
2022-07-30T02:34:41.618Z,15.50
2022-07-30T02:37:14.463Z,15.40
2022-07-30T02:39:44.880Z,15.50
2022-07-30T02:42:16.157Z,15.40
2022-07-30T02:44:46.545Z,15.40
2022-07-30T02:47:16.710Z,15.30
2022-07-30T02:49:46.544Z,15.40
2022-07-30T02:52:17.774Z,15.40
2022-07-30T02:54:47.309Z,15.30
2022-07-30T02:57:19.999Z,15.40
2022-07-30T02:59:50.584Z,15.30
2022-07-30T03:02:28.903Z,15.30
2022-07-30T03:05:00.422Z,15.30
2022-07-30T03:07:29.986Z,15.30
2022-07-30T03:09:59.173Z,15.30
2022-07-30T03:12:31.891Z,15.30
2022-07-30T03:15:00.380Z,15.30
2022-07-30T03:17:34.553Z,15.30
2022-07-30T03:20:05.501Z,15.30
2022-07-30T03:22:36.296Z,15.30
2022-07-30T03:25:06.503Z,15.30
2022-07-30T03:27:38.150Z,15.30
2022-07-30T03:30:10.512Z,15.20
2022-07-30T03:32:39.548Z,15.30
2022-07-30T03:35:17.247Z,15.30
2022-07-30T03:37:46.392Z,15.30
2022-07-30T03:40:16.574Z,15.30
2022-07-30T03:42:46.838Z,15.40
2022-07-30T03:45:16.423Z,15.40
2022-07-30T03:47:45.855Z,15.50
2022-07-30T03:50:16.166Z,15.40
2022-07-30T03:52:45.060Z,15.50
2022-07-30T03:55:14.121Z,15.50
2022-07-30T03:57:42.521Z,15.60
2022-07-30T04:00:17.256Z,15.60
2022-07-30T04:02:46.702Z,15.60
2022-07-30T04:05:15.690Z,15.70
2022-07-30T04:07:45.259Z,15.80
2022-07-30T04:10:14.299Z,15.80
2022-07-30T04:12:43.118Z,15.90
2022-07-30T04:16:35.555Z,15.90
2022-07-30T04:18:05.817Z,16.00
2022-07-30T04:20:42.348Z,16.00
2022-07-30T04:23:12.071Z,16.10
2022-07-30T04:25:41.934Z,16.10
2022-07-30T04:28:11.761Z,16.10
2022-07-30T04:30:40.397Z,16.10
2022-07-30T04:33:10.221Z,16.20
2022-07-30T04:35:51.175Z,16.20
2022-07-30T04:38:21.616Z,16.20
2022-07-30T04:40:50.154Z,16.30
2022-07-30T04:43:18.632Z,16.30
2022-07-30T04:45:47.057Z,16.30
2022-07-30T04:48:16.794Z,16.30
2022-07-30T04:50:50.827Z,16.30
2022-07-30T04:53:20.802Z,16.30
2022-07-30T04:55:50.973Z,16.40
2022-07-30T04:58:22.243Z,16.40
2022-07-30T05:00:53.173Z,16.40
2022-07-30T05:03:24.911Z,16.40
2022-07-30T05:05:57.300Z,16.40
2022-07-30T05:08:26.768Z,16.50
2022-07-30T05:10:55.307Z,16.50
2022-07-30T05:13:27.534Z,16.50
2022-07-30T05:16:03.312Z,16.50
2022-07-30T05:18:33.106Z,16.60
2022-07-30T05:21:01.370Z,16.50
2022-07-30T05:23:29.900Z,16.60
2022-07-30T05:25:58.266Z,16.60
2022-07-30T05:28:27.712Z,16.60
2022-07-30T05:30:57.294Z,16.70
2022-07-30T05:33:40.910Z,16.70
2022-07-30T05:36:12.407Z,16.80
2022-07-30T05:38:40.765Z,16.80
2022-07-30T05:41:30.799Z,16.80
2022-07-30T05:43:57.937Z,16.90
2022-07-30T05:46:26.321Z,16.80
2022-07-30T05:48:54.783Z,16.80
2022-07-30T05:51:24.447Z,16.80
2022-07-30T05:53:52.861Z,16.80
2022-07-30T05:56:21.196Z,16.80
2022-07-30T05:58:49.454Z,16.90
2022-07-30T06:01:17.746Z,16.90
2022-07-30T06:03:46.097Z,16.90
2022-07-30T06:06:14.439Z,16.90
2022-07-30T06:08:44.217Z,16.90
2022-07-30T06:11:12.494Z,16.90
2022-07-30T06:13:40.905Z,16.90
2022-07-30T06:16:09.269Z,17.00
2022-07-30T06:18:37.620Z,17.00
2022-07-30T06:21:07.156Z,17.10
2022-07-30T06:23:35.567Z,17.20
2022-07-30T06:26:05.297Z,17.20
2022-07-30T06:28:38.466Z,17.30
2022-07-30T06:31:07.582Z,17.20
2022-07-30T06:33:36.098Z,17.30
2022-07-30T06:36:04.657Z,17.40
2022-07-30T06:38:32.957Z,17.40
2022-07-30T06:41:02.926Z,17.40
2022-07-30T06:43:34.491Z,17.50
2022-07-30T06:46:02.813Z,17.50
2022-07-30T06:48:32.613Z,17.60
2022-07-30T06:51:01.012Z,17.60
2022-07-30T06:53:29.371Z,17.60
2022-07-30T06:56:00.481Z,17.70
2022-07-30T06:58:29.275Z,17.80
2022-07-30T07:00:59.111Z,17.80
2022-07-30T07:03:39.792Z,17.90
2022-07-30T07:06:09.439Z,17.90
2022-07-30T07:08:38.612Z,18.00
2022-07-30T07:11:07.283Z,18.10
2022-07-30T07:13:35.612Z,18.20
2022-07-30T07:16:06.110Z,18.30
2022-07-30T07:18:34.442Z,18.40
2022-07-30T07:21:02.736Z,18.50
2022-07-30T07:23:39.725Z,18.60
2022-07-30T07:26:11.947Z,18.70
2022-07-30T07:28:41.198Z,18.80
2022-07-30T07:31:11.921Z,18.80
2022-07-30T07:34:00.152Z,18.90
2022-07-30T07:36:28.508Z,19.00
2022-07-30T07:38:57.121Z,19.10
2022-07-30T07:41:26.255Z,19.20
2022-07-30T07:43:54.747Z,19.30
2022-07-30T07:46:33.671Z,19.50
2022-07-30T07:49:02.793Z,19.60
2022-07-30T07:51:47.658Z,19.70
2022-07-30T07:54:24.113Z,19.80
2022-07-30T07:56:55.950Z,19.90
2022-07-30T07:59:27.741Z,20.00
2022-07-30T08:02:10.203Z,20.10
2022-07-30T08:04:38.534Z,20.20
2022-07-30T08:07:06.840Z,20.10
2022-07-30T08:09:40.862Z,20.20
2022-07-30T08:12:13.652Z,20.30
2022-07-30T08:14:42.062Z,20.50
2022-07-30T08:17:11.797Z,20.60
2022-07-30T08:19:40.437Z,20.60
2022-07-30T08:22:08.894Z,20.40
2022-07-30T08:24:37.170Z,20.40
2022-07-30T08:27:05.954Z,20.60
2022-07-30T08:29:34.297Z,20.80
2022-07-30T08:32:02.961Z,21.00
2022-07-30T08:34:32.860Z,21.00
2022-07-30T08:37:01.762Z,20.90
2022-07-30T08:39:30.072Z,21.00
2022-07-30T08:41:59.892Z,21.20
2022-07-30T08:44:30.342Z,21.40
2022-07-30T08:47:01.482Z,21.50
2022-07-30T08:49:30.454Z,21.60
2022-07-30T08:52:00.660Z,21.70
2022-07-30T08:54:29.464Z,21.80
2022-07-30T08:56:59.488Z,21.80
2022-07-30T08:59:52.845Z,21.90
2022-07-30T09:02:16.661Z,21.80
2022-07-30T09:04:56.137Z,21.80
2022-07-30T09:07:25.818Z,21.90
2022-07-30T09:09:54.156Z,22.00
2022-07-30T09:12:36.914Z,21.90
2022-07-30T09:15:12.119Z,22.20
2022-07-30T09:17:50.054Z,22.40
2022-07-30T09:20:19.610Z,22.30
2022-07-30T09:22:54.273Z,22.50
2022-07-30T09:25:37.867Z,22.50
2022-07-30T09:28:16.432Z,22.70
2022-07-30T09:30:48.379Z,22.80
2022-07-30T09:33:17.993Z,22.80
2022-07-30T09:35:46.279Z,23.00
2022-07-30T09:38:15.927Z,23.10
2022-07-30T09:40:53.183Z,23.20
2022-07-30T09:43:27.857Z,23.20
2022-07-30T09:45:58.435Z,23.40
2022-07-30T09:48:29.472Z,23.30
2022-07-30T09:50:57.972Z,23.00
2022-07-30T09:53:28.270Z,23.20
2022-07-30T09:55:59.563Z,23.50
2022-07-30T09:58:40.592Z,23.70
2022-07-30T10:01:14.002Z,24.00
2022-07-30T10:03:44.328Z,24.10
2022-07-30T10:06:15.403Z,24.30
2022-07-30T10:08:48.158Z,24.20
2022-07-30T10:11:22.621Z,24.00
2022-07-30T10:13:55.816Z,24.30
2022-07-30T10:16:27.413Z,24.50
2022-07-30T10:19:00.076Z,24.70
2022-07-30T10:21:32.676Z,24.80
2022-07-30T10:24:07.242Z,24.90
2022-07-30T10:26:36.559Z,25.10
2022-07-30T10:29:06.791Z,25.40
2022-07-30T10:31:49.062Z,25.50
2022-07-30T10:34:23.714Z,25.60
2022-07-30T10:36:59.006Z,25.70
2022-07-30T10:39:35.749Z,25.80
2022-07-30T10:42:20.805Z,25.80
2022-07-30T10:45:18.638Z,25.90
2022-07-30T10:47:48.708Z,26.10
2022-07-30T10:50:22.509Z,26.20
2022-07-30T10:52:53.429Z,26.40
2022-07-30T10:55:36.853Z,26.40
2022-07-30T10:58:10.525Z,26.40
2022-07-30T11:01:00.274Z,26.30
2022-07-30T11:03:40.792Z,26.60
2022-07-30T11:06:37.212Z,26.80
2022-07-30T11:09:41.006Z,27.00
2022-07-30T11:12:12.953Z,27.20
2022-07-30T11:15:06.620Z,27.30
2022-07-30T11:18:03.023Z,27.60
2022-07-30T11:20:34.225Z,27.70
2022-07-30T11:23:40.743Z,27.80
2022-07-30T11:26:14.346Z,27.90
2022-07-30T11:28:49.596Z,27.90
2022-07-30T11:31:55.806Z,28.00
2022-07-30T11:34:27.856Z,28.00
2022-07-30T11:37:18.843Z,28.00
2022-07-30T11:40:13.949Z,28.30
2022-07-30T11:42:43.793Z,28.50
2022-07-30T11:45:29.606Z,28.50
2022-07-30T11:48:03.296Z,28.50
2022-07-30T11:50:34.416Z,28.50
2022-07-30T11:53:05.489Z,28.50
2022-07-30T11:55:36.816Z,28.60
2022-07-30T11:58:07.696Z,28.40
2022-07-30T12:00:40.858Z,28.50
2022-07-30T12:03:11.816Z,28.20
2022-07-30T12:05:41.039Z,28.10
2022-07-30T12:08:31.566Z,28.00
2022-07-30T12:11:01.060Z,28.20
2022-07-30T12:13:45.708Z,28.30
2022-07-30T12:16:17.958Z,28.30
2022-07-30T12:18:48.901Z,28.30
2022-07-30T12:21:17.903Z,28.50
2022-07-30T12:23:57.855Z,28.50
2022-07-30T12:26:29.343Z,28.30
2022-07-30T12:28:59.446Z,28.00
2022-07-30T12:31:29.702Z,28.20
2022-07-30T12:33:59.146Z,28.40
2022-07-30T12:36:31.333Z,28.50
2022-07-30T12:39:01.014Z,28.60
2022-07-30T12:41:46.484Z,28.50
2022-07-30T12:44:39.746Z,28.50
2022-07-30T12:47:21.739Z,28.60
2022-07-30T12:49:53.258Z,28.40
2022-07-30T12:52:28.311Z,28.50
2022-07-30T12:55:08.765Z,28.40
2022-07-30T12:58:07.006Z,28.40
2022-07-30T13:00:52.129Z,28.30
2022-07-30T13:03:28.115Z,27.90
2022-07-30T13:05:58.397Z,27.80
2022-07-30T13:08:47.957Z,27.80
2022-07-30T13:11:17.510Z,27.60
2022-07-30T13:13:45.965Z,27.50
2022-07-30T13:16:14.637Z,27.70
2022-07-30T13:18:44.419Z,27.80
2022-07-30T13:21:14.041Z,27.80
2022-07-30T13:23:43.239Z,27.70
2022-07-30T13:26:12.324Z,27.80
2022-07-30T13:28:40.920Z,27.80
2022-07-30T13:31:09.858Z,27.70
2022-07-30T13:33:38.297Z,27.60
2022-07-30T13:36:09.178Z,27.70
2022-07-30T13:38:37.662Z,27.80
2022-07-30T13:41:06.510Z,27.90
2022-07-30T13:43:35.164Z,28.00
2022-07-30T13:46:04.075Z,27.80
2022-07-30T13:48:33.134Z,27.90
2022-07-30T13:51:02.407Z,28.00
2022-07-30T13:53:32.272Z,28.00
2022-07-30T13:56:00.610Z,28.10
2022-07-30T13:58:32.913Z,28.10
2022-07-30T14:01:06.997Z,28.10
2022-07-30T14:03:35.804Z,28.10
2022-07-30T14:06:11.027Z,28.00
2022-07-30T14:08:41.909Z,28.00
2022-07-30T14:11:10.191Z,28.20
2022-07-30T14:13:38.525Z,28.00
2022-07-30T14:16:22.619Z,28.10
2022-07-30T14:18:55.647Z,28.00
2022-07-30T14:21:23.905Z,27.90
2022-07-30T14:23:55.046Z,27.90
2022-07-30T14:26:23.368Z,27.90
2022-07-30T14:28:51.663Z,27.80
2022-07-30T14:31:19.978Z,27.90
2022-07-30T14:33:48.245Z,28.00
2022-07-30T14:36:16.703Z,28.00
2022-07-30T14:38:44.957Z,28.00
2022-07-30T14:41:14.624Z,28.10
2022-07-30T14:43:42.926Z,28.10
2022-07-30T14:46:11.173Z,28.00
2022-07-30T14:48:39.402Z,27.90
2022-07-30T14:51:17.759Z,27.80
2022-07-30T14:53:48.064Z,27.50
2022-07-30T14:56:18.083Z,27.40
2022-07-30T14:58:46.510Z,27.20
2022-07-30T15:01:16.073Z,27.10
2022-07-30T15:03:45.464Z,27.20
2022-07-30T15:06:15.442Z,27.30
2022-07-30T15:08:46.119Z,27.30
2022-07-30T15:11:14.613Z,27.30
2022-07-30T15:13:50.063Z,27.20
2022-07-30T15:16:19.243Z,27.10
2022-07-30T15:18:47.702Z,27.00
2022-07-30T15:21:16.186Z,26.90
2022-07-30T15:23:44.793Z,26.90
2022-07-30T15:26:13.385Z,27.00
2022-07-30T15:28:43.115Z,27.10
2022-07-30T15:31:11.425Z,27.10
2022-07-30T15:33:43.070Z,27.10
2022-07-30T15:36:11.560Z,27.10
2022-07-30T15:38:40.031Z,27.10
2022-07-30T15:41:13.357Z,27.00
2022-07-30T15:43:43.455Z,26.90
2022-07-30T15:46:11.783Z,26.80
2022-07-30T15:48:40.684Z,26.80
2022-07-30T15:51:09.424Z,26.80
2022-07-30T15:53:37.790Z,26.70
2022-07-30T15:56:06.555Z,26.60
2022-07-30T15:58:35.224Z,26.50
2022-07-30T16:01:06.089Z,26.40
2022-07-30T16:03:34.393Z,26.40
2022-07-30T16:06:02.663Z,26.40
2022-07-30T16:08:30.959Z,26.40
2022-07-30T16:11:03.760Z,26.30
2022-07-30T16:13:32.478Z,26.30
2022-07-30T16:16:01.188Z,26.30
2022-07-30T16:18:30.868Z,26.30
2022-07-30T16:21:01.265Z,26.30
2022-07-30T16:23:36.144Z,26.30
2022-07-30T16:26:05.712Z,26.30
2022-07-30T16:28:34.089Z,26.40
2022-07-30T16:31:02.320Z,26.30
2022-07-30T16:33:32.029Z,26.30
2022-07-30T16:36:00.274Z,26.20
2022-07-30T16:38:28.570Z,26.20
2022-07-30T16:40:56.916Z,26.20
2022-07-30T16:43:25.202Z,26.10
2022-07-30T16:45:53.494Z,26.20
2022-07-30T16:48:21.838Z,26.00
2022-07-30T16:50:51.521Z,26.00
2022-07-30T16:53:19.910Z,25.90
2022-07-30T16:55:48.611Z,25.80
2022-07-30T16:58:16.912Z,25.80
2022-07-30T17:00:45.340Z,25.80
2022-07-30T17:03:19.859Z,25.80
2022-07-30T17:05:50.044Z,25.70
2022-07-30T17:08:18.503Z,25.80
2022-07-30T17:10:47.766Z,25.70
2022-07-30T17:13:16.660Z,25.70
2022-07-30T17:15:46.959Z,25.70
2022-07-30T17:18:16.227Z,25.60
2022-07-30T17:20:45.068Z,25.60
2022-07-30T17:23:14.919Z,25.60
2022-07-30T17:25:43.276Z,25.60
2022-07-30T17:28:11.613Z,25.50
2022-07-30T17:30:41.071Z,25.50
2022-07-30T17:33:09.350Z,25.50
2022-07-30T17:35:37.932Z,25.40
2022-07-30T17:38:07.329Z,25.50
2022-07-30T17:40:37.114Z,25.40
2022-07-30T17:43:06.007Z,25.40
2022-07-30T17:45:36.760Z,25.40
2022-07-30T17:48:05.382Z,25.40
2022-07-30T17:50:35.319Z,25.40
2022-07-30T17:53:05.255Z,25.30
2022-07-30T17:55:35.062Z,25.30
2022-07-30T17:58:06.219Z,25.30
2022-07-30T18:00:35.391Z,25.20
2022-07-30T18:03:03.856Z,25.20
2022-07-30T18:05:32.248Z,25.20
2022-07-30T18:08:00.564Z,25.20
2022-07-30T18:10:28.900Z,25.10
2022-07-30T18:12:57.383Z,25.10
2022-07-30T18:15:27.992Z,25.00
2022-07-30T18:17:56.300Z,25.00
2022-07-30T18:20:24.813Z,24.90
2022-07-30T18:22:53.059Z,24.90
2022-07-30T18:25:23.148Z,24.80
2022-07-30T18:27:52.404Z,24.80
2022-07-30T18:30:20.865Z,24.80
2022-07-30T18:32:50.620Z,24.80
2022-07-30T18:35:19.140Z,24.70
2022-07-30T18:37:48.259Z,24.60
2022-07-30T18:40:23.491Z,24.50
2022-07-30T18:42:52.251Z,24.50
2022-07-30T18:45:21.010Z,24.50
2022-07-30T18:47:50.685Z,24.40
2022-07-30T18:50:20.863Z,24.30
2022-07-30T18:52:49.464Z,24.30
2022-07-30T18:55:20.844Z,24.20
2022-07-30T18:57:52.124Z,24.20
2022-07-30T19:00:34.609Z,24.20
2022-07-30T19:03:05.107Z,24.10
2022-07-30T19:05:33.644Z,24.10
2022-07-30T19:08:01.929Z,24.00
2022-07-30T19:10:30.216Z,24.00
2022-07-30T19:12:58.538Z,23.90
2022-07-30T19:15:28.409Z,23.90
2022-07-30T19:17:57.284Z,23.90
2022-07-30T19:20:27.360Z,23.90
2022-07-30T19:23:02.584Z,23.80
2022-07-30T19:25:32.493Z,23.80
2022-07-30T19:28:01.461Z,23.70
2022-07-30T19:30:30.153Z,23.70
2022-07-30T19:33:05.237Z,23.60
2022-07-30T19:35:35.073Z,23.50
2022-07-30T19:38:03.914Z,23.50
2022-07-30T19:40:32.602Z,23.50
2022-07-30T19:43:06.564Z,23.40
2022-07-30T19:45:46.890Z,23.40
2022-07-30T19:48:29.262Z,23.30
2022-07-30T19:51:02.319Z,23.30
2022-07-30T19:53:34.501Z,23.30
2022-07-30T19:56:10.539Z,23.20
2022-07-30T19:58:40.002Z,23.10
2022-07-30T20:01:09.810Z,23.00
2022-07-30T20:03:39.042Z,23.00
2022-07-30T20:08:58.123Z,22.90
2022-07-30T20:11:36.037Z,22.90
2022-07-30T20:14:05.056Z,22.90
2022-07-30T20:16:33.367Z,22.90
2022-07-30T20:19:03.291Z,22.80
2022-07-30T20:21:56.426Z,22.80
2022-07-30T20:24:24.524Z,22.80
2022-07-30T20:26:53.936Z,22.70
2022-07-30T20:29:22.244Z,22.70
2022-07-30T20:31:50.678Z,22.70
2022-07-30T20:34:23.239Z,22.70
2022-07-30T20:36:53.834Z,22.70
2022-07-30T20:39:25.113Z,22.60
2022-07-30T20:42:07.794Z,22.60
2022-07-30T20:44:37.570Z,22.60
2022-07-30T20:47:08.365Z,22.50
2022-07-30T20:49:37.129Z,22.40
2022-07-30T20:52:09.647Z,22.40
2022-07-30T20:54:45.190Z,22.40
2022-07-30T20:57:15.770Z,22.40
2022-07-30T20:59:48.482Z,22.30
2022-07-30T21:02:17.740Z,22.30
2022-07-30T21:04:59.410Z,22.30
2022-07-30T21:07:36.415Z,22.40
2022-07-30T21:10:07.402Z,22.30
2022-07-30T21:12:36.427Z,22.30
2022-07-30T21:15:15.756Z,22.30
2022-07-30T21:17:53.177Z,22.20
2022-07-30T21:20:27.516Z,22.20
2022-07-30T21:23:04.290Z,22.20
2022-07-30T21:25:33.552Z,22.10
2022-07-30T21:28:03.255Z,22.10
2022-07-30T21:30:33.341Z,22.10
2022-07-30T21:33:01.617Z,22.10
2022-07-30T21:35:31.650Z,22.00
2022-07-30T21:38:01.928Z,21.90
2022-07-30T21:40:31.596Z,21.90
2022-07-30T21:42:59.996Z,21.90
2022-07-30T21:45:37.944Z,21.90
2022-07-30T21:48:10.851Z,21.80
2022-07-30T21:50:40.062Z,21.80
2022-07-30T21:53:09.898Z,21.80
2022-07-30T21:55:52.352Z,21.80
2022-07-30T21:58:24.079Z,21.70
2022-07-30T22:01:16.424Z,21.70
2022-07-30T22:04:04.806Z,21.60
2022-07-30T22:06:36.563Z,21.60
2022-07-30T22:09:24.356Z,21.60
2022-07-30T22:11:59.577Z,21.50
2022-07-30T22:14:30.052Z,21.50
2022-07-30T22:17:00.469Z,21.50
2022-07-30T22:19:28.761Z,21.60
2022-07-30T22:21:57.048Z,21.50
2022-07-30T22:24:30.353Z,21.50
2022-07-30T22:27:01.507Z,21.40
2022-07-30T22:29:34.471Z,21.40
2022-07-30T22:32:06.277Z,21.40
2022-07-30T22:34:36.398Z,21.40
2022-07-30T22:37:04.838Z,21.30
2022-07-30T22:39:54.846Z,21.30
2022-07-30T22:42:24.959Z,21.30
2022-07-30T22:44:55.736Z,21.40
2022-07-30T22:47:50.668Z,21.30
2022-07-30T22:50:14.768Z,21.40
2022-07-30T22:52:57.641Z,21.40
2022-07-30T22:55:38.192Z,21.40
2022-07-30T22:58:06.540Z,21.40
2022-07-30T23:00:35.250Z,21.40
2022-07-30T23:03:04.188Z,21.40
2022-07-30T23:05:36.656Z,21.30
2022-07-30T23:08:08.290Z,21.30
2022-07-30T23:10:38.033Z,21.30
2022-07-30T23:12:15.854Z,23.00
2022-07-30T23:15:36.402Z,21.20
2022-07-30T23:18:04.847Z,21.10
2022-07-30T23:20:33.288Z,21.10
2022-07-30T23:23:03.063Z,21.10
2022-07-30T23:25:38.615Z,21.10
2022-07-30T23:28:08.923Z,21.00
2022-07-30T23:30:37.242Z,21.00
2022-07-30T23:33:05.616Z,21.00
2022-07-30T23:35:34.966Z,21.00
2022-07-30T23:38:03.408Z,20.90
2022-07-30T23:40:31.846Z,20.90
2022-07-30T23:43:00.105Z,20.90
2022-07-30T23:45:29.966Z,20.90
2022-07-30T23:48:02.709Z,20.90
2022-07-30T23:50:33.282Z,20.90
2022-07-30T23:53:02.319Z,20.90
2022-07-30T23:55:31.643Z,20.90
2022-07-30T23:58:00.397Z,20.80
